Time;durP1;ratioP1;P1;durP2;ratioP2;P2;SDS_P1;SDS_P2;PMS_P1;PMS_P2;Temp;Humidity;BMP_temperature;BMP_pressure;BME280_temperature;BME280_humidity;BME280_pressure;Samples;Min_cycle;Max_cycle;Signal;HPM_P1;HPM_P2
2022/03/25 00:00:31;;;;;;;33.47;21.98;;;;;;;;;;2056261;28;20555;-51
2022/03/25 00:01:31;;;;;;;33.17;22.25;;;;;;;;;;2043076;28;20172;-53
2022/03/25 00:02:31;;;;;;;31.88;21.83;;;;;;;;;;2055268;28;20197;-52
2022/03/25 00:03:32;;;;;;;31.03;20.63;;;;;;;;;;2054876;28;20178;-50
2022/03/25 00:04:32;;;;;;;30.75;22.60;;;;;;;;;;2053975;28;20174;-54
2022/03/25 00:05:33;;;;;;;29.80;21.80;;;;;;;;;;2051190;28;20644;-51
2022/03/25 00:06:33;;;;;;;34.35;21.20;;;;;;;;;;2056885;28;20635;-52
2022/03/25 00:07:34;;;;;;;32.13;22.40;;;;;;;;;;2049786;28;20683;-51
2022/03/25 00:08:35;;;;;;;32.13;22.10;;;;;;;;;;2056409;28;20332;-51
2022/03/25 00:09:35;;;;;;;28.70;20.88;;;;;;;;;;2040628;29;20175;-52
2022/03/25 00:10:35;;;;;;;34.22;23.05;;;;;;;;;;2038385;29;20352;-52
2022/03/25 00:11:35;;;;;;;35.60;23.55;;;;;;;;;;2049303;29;20171;-52
2022/03/25 00:12:36;;;;;;;34.92;23.35;;;;;;;;;;2049255;29;20163;-53
2022/03/25 00:13:36;;;;;;;32.33;22.20;;;;;;;;;;2048272;28;20262;-53
2022/03/25 00:14:37;;;;;;;37.78;24.38;;;;;;;;;;2054464;28;20611;-52
2022/03/25 00:15:37;;;;;;;38.63;24.23;;;;;;;;;;2054401;28;20321;-52
2022/03/25 00:16:37;;;;;;;36.65;23.83;;;;;;;;;;2056676;28;20174;-53
2022/03/25 00:17:38;;;;;;;29.80;21.90;;;;;;;;;;2049445;28;20855;-55
2022/03/25 00:18:38;;;;;;;32.60;23.40;;;;;;;;;;2052906;28;20277;-54
2022/03/25 00:19:38;;;;;;;35.00;24.10;;;;;;;;;;2056847;28;20197;-54
2022/03/25 00:20:39;;;;;;;37.70;23.70;;;;;;;;;;2049696;28;20193;-52
2022/03/25 00:21:39;;;;;;;30.55;23.85;;;;;;;;;;2044810;29;20184;-56
2022/03/25 00:22:39;;;;;;;31.57;23.00;;;;;;;;;;2047835;29;20171;-54
2022/03/25 00:23:39;;;;;;;33.20;23.43;;;;;;;;;;2048745;28;20691;-54
2022/03/25 00:24:39;;;;;;;29.37;22.43;;;;;;;;;;2051659;28;20558;-55
2022/03/25 00:25:40;;;;;;;34.20;24.00;;;;;;;;;;2048991;29;20179;-56
2022/03/25 00:26:40;;;;;;;31.77;22.67;;;;;;;;;;2040232;29;20570;-55
2022/03/25 00:27:40;;;;;;;33.55;23.10;;;;;;;;;;2040628;29;20740;-54
2022/03/25 00:28:40;;;;;;;30.55;22.70;;;;;;;;;;2040444;29;20203;-51
2022/03/25 00:29:41;;;;;;;36.60;23.50;;;;;;;;;;2032972;29;20215;-52
2022/03/25 00:30:43;;;;;;;29.70;21.83;;;;;;;;;;2040871;29;20765;-52
2022/03/25 00:31:43;;;;;;;31.45;22.15;;;;;;;;;;2055415;28;20170;-51
2022/03/25 00:32:44;;;;;;;37.92;22.85;;;;;;;;;;2041275;29;20741;-53
2022/03/25 00:33:49;;;;;;;32.03;22.77;;;;;;;;;;2039491;29;20199;-55
2022/03/25 00:34:49;;;;;;;34.17;22.70;;;;;;;;;;2034026;29;20180;-52
2022/03/25 00:35:49;;;;;;;32.53;21.80;;;;;;;;;;2040393;29;20743;-52
2022/03/25 00:36:49;;;;;;;34.17;24.13;;;;;;;;;;2034749;29;20176;-54
2022/03/25 00:37:50;;;;;;;30.88;22.80;;;;;;;;;;2034175;29;20291;-57
2022/03/25 00:38:50;;;;;;;30.42;23.15;;;;;;;;;;2040918;29;20195;-52
2022/03/25 00:39:51;;;;;;;33.40;24.17;;;;;;;;;;2035443;29;20611;-51
2022/03/25 00:40:51;;;;;;;36.00;24.55;;;;;;;;;;2047179;29;20183;-53
2022/03/25 00:41:51;;;;;;;39.53;23.97;;;;;;;;;;2051553;28;20183;-55
2022/03/25 00:42:51;;;;;;;39.27;26.90;;;;;;;;;;2047452;29;20205;-53
2022/03/25 00:43:52;;;;;;;32.00;23.00;;;;;;;;;;2043276;29;20195;-54
2022/03/25 00:44:52;;;;;;;36.23;25.63;;;;;;;;;;2053569;28;20179;-52
2022/03/25 00:45:53;;;;;;;40.07;28.53;;;;;;;;;;2041106;29;20814;-54
2022/03/25 00:46:53;;;;;;;42.33;26.97;;;;;;;;;;2041371;29;20179;-53
2022/03/25 00:47:54;;;;;;;33.67;23.60;;;;;;;;;;2041669;29;20699;-55
2022/03/25 00:48:56;;;;;;;34.23;24.23;;;;;;;;;;2050258;29;20190;-53
2022/03/25 00:49:56;;;;;;;34.80;23.70;;;;;;;;;;2045705;29;20289;-52
2022/03/25 00:50:56;;;;;;;30.27;22.88;;;;;;;;;;2037866;29;20312;-53
2022/03/25 00:51:57;;;;;;;34.95;24.13;;;;;;;;;;2049915;29;20214;-53
2022/03/25 00:52:57;;;;;;;32.23;23.97;;;;;;;;;;2043999;29;20171;-51
2022/03/25 00:53:57;;;;;;;34.10;23.80;;;;;;;;;;2042724;29;20192;-55
2022/03/25 00:54:58;;;;;;;32.13;23.30;;;;;;;;;;2045770;29;20198;-56
2022/03/25 00:56:01;;;;;;;32.87;22.27;;;;;;;;;;2046315;29;20176;-55
2022/03/25 00:57:02;;;;;;;37.45;23.95;;;;;;;;;;2038586;29;20192;-53
2022/03/25 00:58:03;;;;;;;30.67;23.33;;;;;;;;;;2044262;29;20223;-55
2022/03/25 00:59:03;;;;;;;31.37;22.63;;;;;;;;;;2053227;28;20194;-57
2022/03/25 01:00:04;;;;;;;30.00;23.37;;;;;;;;;;2058331;28;20221;-57
2022/03/25 01:01:05;;;;;;;31.80;22.70;;;;;;;;;;2058403;28;20181;-55
2022/03/25 01:02:05;;;;;;;36.80;22.93;;;;;;;;;;2052822;29;20245;-53
2022/03/25 01:03:05;;;;;;;38.05;23.27;;;;;;;;;;2043984;29;20276;-55
2022/03/25 01:04:07;;;;;;;33.03;23.90;;;;;;;;;;2044138;29;20198;-58
2022/03/25 01:05:08;;;;;;;31.90;23.27;;;;;;;;;;2048776;29;20183;-53
2022/03/25 01:06:08;;;;;;;31.07;22.90;;;;;;;;;;2047691;29;20210;-55
2022/03/25 01:07:08;;;;;;;31.77;23.13;;;;;;;;;;2042496;29;20200;-51
2022/03/25 01:08:09;;;;;;;33.63;23.80;;;;;;;;;;2047446;29;20224;-56
2022/03/25 01:09:09;;;;;;;32.83;23.73;;;;;;;;;;2047219;28;20195;-53
2022/03/25 01:10:10;;;;;;;35.95;24.02;;;;;;;;;;2047805;29;20182;-53
2022/03/25 01:11:11;;;;;;;30.88;22.52;;;;;;;;;;2046386;29;20200;-52
2022/03/25 01:12:11;;;;;;;34.97;22.47;;;;;;;;;;2047160;29;20269;-53
2022/03/25 01:13:11;;;;;;;36.17;22.40;;;;;;;;;;2050129;28;20206;-56
2022/03/25 01:14:13;;;;;;;31.83;22.37;;;;;;;;;;2047315;29;20195;-53
2022/03/25 01:15:13;;;;;;;34.23;21.80;;;;;;;;;;2045704;29;20657;-52
2022/03/25 01:16:14;;;;;;;33.58;21.95;;;;;;;;;;2049831;29;20179;-53
2022/03/25 01:17:19;;;;;;;34.37;22.70;;;;;;;;;;2039895;29;20169;-51
2022/03/25 01:18:21;;;;;;;31.13;22.57;;;;;;;;;;2047130;29;20207;-54
2022/03/25 01:19:22;;;;;;;35.13;23.70;;;;;;;;;;2055546;28;20183;-54
2022/03/25 01:20:23;;;;;;;34.57;23.80;;;;;;;;;;2057324;28;20253;-52
2022/03/25 01:21:24;;;;;;;33.30;23.53;;;;;;;;;;2058799;28;20189;-51
2022/03/25 01:22:24;;;;;;;33.73;22.73;;;;;;;;;;2051443;29;20171;-56
2022/03/25 01:23:25;;;;;;;32.97;23.60;;;;;;;;;;2044384;29;20637;-53
2022/03/25 01:24:26;;;;;;;36.07;24.43;;;;;;;;;;2044812;29;20179;-54
2022/03/25 01:25:26;;;;;;;31.57;21.90;;;;;;;;;;2050040;29;20178;-52
2022/03/25 01:26:28;;;;;;;33.67;20.90;;;;;;;;;;2047401;29;20623;-55
2022/03/25 01:27:29;;;;;;;31.00;21.57;;;;;;;;;;2048916;29;20191;-53
2022/03/25 01:28:34;;;;;;;28.03;21.03;;;;;;;;;;2044780;29;20200;-55
2022/03/25 01:29:34;;;;;;;30.37;21.97;;;;;;;;;;2050898;29;20190;-54
2022/03/25 01:30:35;;;;;;;28.00;21.93;;;;;;;;;;2042585;29;20204;-56
2022/03/25 01:31:35;;;;;;;28.23;20.43;;;;;;;;;;2033686;29;20254;-54
2022/03/25 01:32:37;;;;;;;30.93;20.77;;;;;;;;;;2029904;29;20169;-55
2022/03/25 01:33:38;;;;;;;32.20;20.50;;;;;;;;;;2038814;28;20176;-55
2022/03/25 01:34:38;;;;;;;32.10;21.77;;;;;;;;;;2059430;28;20228;-55
2022/03/25 01:35:41;;;;;;;29.20;21.27;;;;;;;;;;2052450;28;20766;-53
2022/03/25 01:36:43;;;;;;;32.00;21.67;;;;;;;;;;2043379;29;20632;-56
2022/03/25 01:37:43;;;;;;;32.90;21.50;;;;;;;;;;2047377;28;20172;-53
2022/03/25 01:38:44;;;;;;;31.37;22.27;;;;;;;;;;2062038;28;20179;-56
2022/03/25 01:39:44;;;;;;;30.27;20.87;;;;;;;;;;2062240;28;20163;-52
2022/03/25 01:40:45;;;;;;;33.10;22.17;;;;;;;;;;2055546;28;20189;-56
2022/03/25 01:41:48;;;;;;;31.07;21.93;;;;;;;;;;2056309;28;20186;-53
2022/03/25 01:42:48;;;;;;;36.30;23.07;;;;;;;;;;2048703;29;20188;-55
2022/03/25 01:43:55;;;;;;;32.03;22.77;;;;;;;;;;2053360;28;20254;-55
2022/03/25 01:44:55;;;;;;;32.53;22.73;;;;;;;;;;2049454;28;20186;-56
2022/03/25 01:45:55;;;;;;;33.37;22.50;;;;;;;;;;2044601;29;20190;-55
2022/03/25 01:46:56;;;;;;;31.93;22.57;;;;;;;;;;2054032;29;20183;-55
2022/03/25 01:47:57;;;;;;;33.37;22.50;;;;;;;;;;2048719;28;20634;-53
2022/03/25 01:48:57;;;;;;;30.17;21.77;;;;;;;;;;2051508;29;20199;-55
2022/03/25 01:50:02;;;;;;;32.47;22.73;;;;;;;;;;2057465;28;20229;-55
2022/03/25 01:51:02;;;;;;;32.33;21.83;;;;;;;;;;2050098;29;20187;-55
2022/03/25 01:52:03;;;;;;;32.77;22.23;;;;;;;;;;2052195;29;20206;-55
2022/03/25 01:53:08;;;;;;;30.07;21.83;;;;;;;;;;2055356;29;20273;-55
2022/03/25 01:54:18;;;;;;;32.33;23.13;;;;;;;;;;2055239;28;20195;-52
2022/03/25 01:55:21;;;;;;;33.27;21.47;;;;;;;;;;2062283;28;20162;-55
2022/03/25 01:56:22;;;;;;;35.77;22.30;;;;;;;;;;2055773;28;20264;-55
2022/03/25 01:57:24;;;;;;;31.20;21.03;;;;;;;;;;2062701;28;20181;-53
2022/03/25 01:58:25;;;;;;;32.23;23.20;;;;;;;;;;2047589;28;20219;-54
2022/03/25 01:59:26;;;;;;;28.60;22.43;;;;;;;;;;2047292;29;20175;-56
2022/03/25 02:00:29;;;;;;;31.70;22.73;;;;;;;;;;2050391;29;20183;-54
2022/03/25 02:01:29;;;;;;;32.10;21.97;;;;;;;;;;2063253;28;20186;-54
2022/03/25 02:02:30;;;;;;;29.13;22.03;;;;;;;;;;2054714;28;20178;-54
2022/03/25 02:03:31;;;;;;;27.87;21.13;;;;;;;;;;2044901;29;20267;-54
2022/03/25 02:04:31;;;;;;;30.97;22.43;;;;;;;;;;2029888;29;20619;-55
2022/03/25 02:05:32;;;;;;;35.33;23.43;;;;;;;;;;2054521;29;20186;-52
2022/03/25 02:06:35;;;;;;;30.03;22.73;;;;;;;;;;2049037;28;20252;-54
2022/03/25 02:07:36;;;;;;;31.93;22.53;;;;;;;;;;2055240;28;20206;-54
2022/03/25 02:08:36;;;;;;;38.47;24.07;;;;;;;;;;2054532;28;20231;-54
2022/03/25 02:09:36;;;;;;;35.60;22.77;;;;;;;;;;2046673;28;20176;-53
2022/03/25 02:10:41;;;;;;;27.93;20.53;;;;;;;;;;2053494;28;20298;-57
2022/03/25 02:11:41;;;;;;;33.57;23.13;;;;;;;;;;2047414;29;20168;-54
2022/03/25 02:12:43;;;;;;;31.57;22.97;;;;;;;;;;2045489;29;20179;-55
2022/03/25 02:13:43;;;;;;;33.53;23.70;;;;;;;;;;2044834;29;20633;-52
2022/03/25 02:14:44;;;;;;;32.47;22.53;;;;;;;;;;2052123;29;20171;-53
2022/03/25 02:15:47;;;;;;;37.60;24.97;;;;;;;;;;2052412;29;20271;-55
2022/03/25 02:16:48;;;;;;;33.33;23.73;;;;;;;;;;2044811;29;20172;-54
2022/03/25 02:17:48;;;;;;;34.97;23.33;;;;;;;;;;2051680;28;20179;-52
2022/03/25 02:18:48;;;;;;;34.20;25.33;;;;;;;;;;2052735;29;20166;-53
2022/03/25 02:19:49;;;;;;;34.53;23.53;;;;;;;;;;2042423;29;20179;-55
2022/03/25 02:20:49;;;;;;;34.30;22.60;;;;;;;;;;2045256;29;20175;-54
2022/03/25 02:21:52;;;;;;;35.00;23.40;;;;;;;;;;2047396;29;20187;-54
2022/03/25 02:22:59;;;;;;;33.20;23.53;;;;;;;;;;2054325;29;20196;-51
2022/03/25 02:24:00;;;;;;;34.27;24.30;;;;;;;;;;2046727;29;20227;-54
2022/03/25 02:25:05;;;;;;;32.97;22.87;;;;;;;;;;2053396;28;20203;-54
2022/03/25 02:26:05;;;;;;;32.87;22.93;;;;;;;;;;2058641;28;20203;-53
2022/03/25 02:27:06;;;;;;;33.63;23.10;;;;;;;;;;2052712;29;20167;-52
2022/03/25 02:28:06;;;;;;;31.13;21.90;;;;;;;;;;2046465;28;20215;-55
2022/03/25 02:29:10;;;;;;;33.33;23.57;;;;;;;;;;2052168;29;20299;-52
2022/03/25 02:30:11;;;;;;;34.13;22.90;;;;;;;;;;2049458;28;20246;-52
2022/03/25 02:31:14;;;;;;;34.07;24.57;;;;;;;;;;2059314;28;20206;-55
2022/03/25 02:32:14;;;;;;;39.40;25.47;;;;;;;;;;2051269;29;20183;-56
2022/03/25 02:33:15;;;;;;;34.07;24.87;;;;;;;;;;2053909;29;20191;-57
2022/03/25 02:34:15;;;;;;;39.60;25.63;;;;;;;;;;2057610;28;20205;-52
2022/03/25 02:35:15;;;;;;;37.47;25.03;;;;;;;;;;2055894;28;20171;-52
2022/03/25 02:36:16;;;;;;;36.40;24.17;;;;;;;;;;2047372;29;20218;-55
2022/03/25 02:37:17;;;;;;;32.47;23.30;;;;;;;;;;2046236;29;20728;-54
2022/03/25 02:38:18;;;;;;;39.23;25.30;;;;;;;;;;2054727;28;20257;-55
2022/03/25 02:39:18;;;;;;;40.10;26.20;;;;;;;;;;2048408;29;20215;-56
2022/03/25 02:40:20;;;;;;;37.97;27.07;;;;;;;;;;2049788;28;20258;-54
2022/03/25 02:41:20;;;;;;;43.63;26.50;;;;;;;;;;2054386;29;20174;-53
2022/03/25 02:42:20;;;;;;;45.47;26.90;;;;;;;;;;2050940;29;20181;-54
2022/03/25 02:43:21;;;;;;;44.43;27.30;;;;;;;;;;2054628;29;20678;-54
2022/03/25 02:44:35;;;;;;;41.13;25.93;;;;;;;;;;2053876;29;20173;-54
2022/03/25 02:45:35;;;;;;;40.07;26.30;;;;;;;;;;2044361;29;20692;-53
2022/03/25 02:46:35;;;;;;;40.37;27.07;;;;;;;;;;2049302;29;20292;-50
2022/03/25 02:47:36;;;;;;;38.37;25.83;;;;;;;;;;2040307;29;20180;-51
2022/03/25 02:48:36;;;;;;;35.57;25.87;;;;;;;;;;2048072;29;20263;-55
2022/03/25 02:49:36;;;;;;;38.17;25.97;;;;;;;;;;2047036;29;20167;-52
2022/03/25 02:50:37;;;;;;;36.37;24.97;;;;;;;;;;2057016;28;20178;-51
2022/03/25 02:51:37;;;;;;;36.17;24.70;;;;;;;;;;2050286;28;20252;-51
2022/03/25 02:52:37;;;;;;;39.17;25.53;;;;;;;;;;2055782;28;20205;-51
2022/03/25 02:53:37;;;;;;;40.10;25.93;;;;;;;;;;2047553;29;20171;-51
2022/03/25 02:54:38;;;;;;;37.33;26.57;;;;;;;;;;2048887;29;20600;-51
2022/03/25 02:55:38;;;;;;;37.60;25.97;;;;;;;;;;2048491;29;20258;-53
2022/03/25 02:56:38;;;;;;;35.83;27.00;;;;;;;;;;2047982;28;20201;-55
2022/03/25 02:57:38;;;;;;;35.13;24.33;;;;;;;;;;2056744;28;20170;-56
2022/03/25 02:58:39;;;;;;;37.70;24.33;;;;;;;;;;2054120;28;20182;-54
2022/03/25 02:59:39;;;;;;;37.07;24.93;;;;;;;;;;2049837;28;20187;-53
2022/03/25 03:00:40;;;;;;;36.83;26.23;;;;;;;;;;2056382;28;20190;-52
2022/03/25 03:01:41;;;;;;;37.93;26.13;;;;;;;;;;2056672;28;20166;-53
2022/03/25 03:02:41;;;;;;;44.17;26.37;;;;;;;;;;2047301;28;20190;-52
2022/03/25 03:03:41;;;;;;;38.57;25.50;;;;;;;;;;2057149;28;20163;-52
2022/03/25 03:04:42;;;;;;;34.83;25.60;;;;;;;;;;2041863;29;20612;-51
2022/03/25 03:05:42;;;;;;;39.60;26.10;;;;;;;;;;2048630;29;20256;-51
2022/03/25 03:06:43;;;;;;;38.00;24.70;;;;;;;;;;2034271;29;20184;-55
2022/03/25 03:07:47;;;;;;;40.53;25.23;;;;;;;;;;2039274;28;20235;-54
2022/03/25 03:08:47;;;;;;;36.37;24.47;;;;;;;;;;2055984;28;20169;-54
2022/03/25 03:09:48;;;;;;;38.23;26.60;;;;;;;;;;2050950;28;20566;-52
2022/03/25 03:10:48;;;;;;;36.40;25.40;;;;;;;;;;2048636;29;20455;-53
2022/03/25 03:11:48;;;;;;;36.33;26.20;;;;;;;;;;2046678;29;20649;-51
2022/03/25 03:12:49;;;;;;;36.83;25.37;;;;;;;;;;2057103;28;20167;-52
2022/03/25 03:13:49;;;;;;;36.57;24.03;;;;;;;;;;2054598;28;20683;-51
2022/03/25 03:14:49;;;;;;;37.97;25.53;;;;;;;;;;2056918;28;20719;-53
2022/03/25 03:15:49;;;;;;;43.77;27.33;;;;;;;;;;2053073;28;20526;-52
2022/03/25 03:16:50;;;;;;;39.13;26.97;;;;;;;;;;2057940;28;20691;-52
2022/03/25 03:17:50;;;;;;;37.83;26.43;;;;;;;;;;2051137;28;20176;-52
2022/03/25 03:18:50;;;;;;;35.67;24.73;;;;;;;;;;2058876;28;20162;-53
2022/03/25 03:19:50;;;;;;;36.23;24.30;;;;;;;;;;2056238;28;20166;-52
2022/03/25 03:20:51;;;;;;;37.27;25.37;;;;;;;;;;2052146;28;20401;-52
2022/03/25 03:21:53;;;;;;;37.60;26.43;;;;;;;;;;2056299;28;20695;-54
2022/03/25 03:22:55;;;;;;;36.53;25.53;;;;;;;;;;2048191;28;20242;-53
2022/03/25 03:23:55;;;;;;;39.70;24.73;;;;;;;;;;2049979;28;20187;-51
2022/03/25 03:24:55;;;;;;;38.23;24.97;;;;;;;;;;2042924;29;20175;-53
2022/03/25 03:25:56;;;;;;;33.43;24.37;;;;;;;;;;2047462;28;20182;-52
2022/03/25 03:26:57;;;;;;;37.30;25.27;;;;;;;;;;2053161;28;20220;-50
2022/03/25 03:27:58;;;;;;;37.67;23.67;;;;;;;;;;2053024;28;20209;-53
2022/03/25 03:28:58;;;;;;;38.27;25.47;;;;;;;;;;2057004;28;20217;-53
2022/03/25 03:29:58;;;;;;;34.10;24.33;;;;;;;;;;2049142;28;20178;-51
2022/03/25 03:30:58;;;;;;;35.03;24.63;;;;;;;;;;2057166;28;20197;-55
2022/03/25 03:31:59;;;;;;;32.87;23.77;;;;;;;;;;2048409;28;20264;-50
2022/03/25 03:32:59;;;;;;;38.17;24.90;;;;;;;;;;2053647;28;20181;-53
2022/03/25 03:33:59;;;;;;;35.93;25.37;;;;;;;;;;2055262;28;20234;-59
2022/03/25 03:35:00;;;;;;;40.40;25.17;;;;;;;;;;2053898;28;20170;-53
2022/03/25 03:36:00;;;;;;;34.97;24.37;;;;;;;;;;2056378;28;20213;-53
2022/03/25 03:37:00;;;;;;;40.53;26.87;;;;;;;;;;2045033;29;20559;-52
2022/03/25 03:38:01;;;;;;;40.77;25.17;;;;;;;;;;2045819;29;20188;-55
2022/03/25 03:39:01;;;;;;;33.47;24.53;;;;;;;;;;2043643;29;20182;-51
2022/03/25 03:40:02;;;;;;;35.77;24.10;;;;;;;;;;2045619;29;20171;-54
2022/03/25 03:41:02;;;;;;;39.20;26.60;;;;;;;;;;2055876;28;20291;-52
2022/03/25 03:42:03;;;;;;;40.53;26.77;;;;;;;;;;2054142;28;20317;-50
2022/03/25 03:43:03;;;;;;;42.33;26.57;;;;;;;;;;2053092;28;22609;-54
2022/03/25 03:44:04;;;;;;;37.67;24.83;;;;;;;;;;2045757;28;20674;-53
2022/03/25 03:45:06;;;;;;;39.33;25.87;;;;;;;;;;2046317;28;20206;-54
2022/03/25 03:46:07;;;;;;;40.27;24.80;;;;;;;;;;2050886;28;20190;-55
2022/03/25 03:47:08;;;;;;;32.87;25.00;;;;;;;;;;2057301;28;20222;-58
2022/03/25 03:48:09;;;;;;;38.07;25.43;;;;;;;;;;2054804;28;20210;-54
2022/03/25 03:49:09;;;;;;;37.50;26.60;;;;;;;;;;2053430;28;20230;-50
2022/03/25 03:50:11;;;;;;;39.97;24.93;;;;;;;;;;2044104;29;20238;-54
2022/03/25 03:51:12;;;;;;;40.40;26.17;;;;;;;;;;2036424;29;20192;-57
2022/03/25 03:52:12;;;;;;;39.70;27.63;;;;;;;;;;2036754;29;20204;-54
2022/03/25 03:53:12;;;;;;;39.07;26.20;;;;;;;;;;2046950;29;20187;-54
2022/03/25 03:54:12;;;;;;;35.17;24.37;;;;;;;;;;2044142;29;20574;-54
2022/03/25 03:55:31;;;;;;;38.83;25.47;;;;;;;;;;2048883;28;20196;-54
2022/03/25 03:56:50;;;;;;;36.80;25.80;;;;;;;;;;2057100;28;20162;-54
2022/03/25 03:57:50;;;;;;;35.40;25.77;;;;;;;;;;2048151;28;20211;-56
2022/03/25 03:58:50;;;;;;;34.77;25.60;;;;;;;;;;2058724;28;20166;-52
2022/03/25 03:59:51;;;;;;;40.60;25.23;;;;;;;;;;2054840;28;20202;-56
2022/03/25 04:00:51;;;;;;;34.40;24.90;;;;;;;;;;2049913;28;20188;-55
2022/03/25 04:01:51;;;;;;;33.60;25.37;;;;;;;;;;2046496;28;20300;-53
2022/03/25 04:02:52;;;;;;;36.20;25.40;;;;;;;;;;2051489;28;20183;-49
2022/03/25 04:03:53;;;;;;;39.30;25.83;;;;;;;;;;2045158;28;20663;-52
2022/03/25 04:04:53;;;;;;;36.67;25.33;;;;;;;;;;2051950;28;20179;-57
2022/03/25 04:05:54;;;;;;;33.63;23.60;;;;;;;;;;2046335;28;20194;-52
2022/03/25 04:06:54;;;;;;;35.00;24.13;;;;;;;;;;2053377;28;20173;-53
2022/03/25 04:07:54;;;;;;;37.13;24.93;;;;;;;;;;2053244;28;20179;-53
2022/03/25 04:08:56;;;;;;;33.70;24.50;;;;;;;;;;2053610;28;20186;-54
2022/03/25 04:09:56;;;;;;;37.47;25.40;;;;;;;;;;2056519;28;20221;-54
2022/03/25 04:10:57;;;;;;;32.13;23.27;;;;;;;;;;2057091;28;20680;-52
2022/03/25 04:11:57;;;;;;;34.80;24.97;;;;;;;;;;2058597;28;20179;-51
2022/03/25 04:12:57;;;;;;;38.73;25.43;;;;;;;;;;2055326;28;20195;-51
2022/03/25 04:13:57;;;;;;;36.37;24.10;;;;;;;;;;2056573;28;20213;-52
2022/03/25 04:14:57;;;;;;;30.17;22.40;;;;;;;;;;2057114;28;20617;-52
2022/03/25 04:15:58;;;;;;;35.53;24.73;;;;;;;;;;2057691;28;20333;-53
2022/03/25 04:16:58;;;;;;;35.23;22.90;;;;;;;;;;2049361;29;20179;-54
2022/03/25 04:17:58;;;;;;;33.10;23.93;;;;;;;;;;2053458;28;20739;-52
2022/03/25 04:18:58;;;;;;;31.63;22.60;;;;;;;;;;2048417;28;20170;-52
2022/03/25 04:19:59;;;;;;;32.77;23.63;;;;;;;;;;2051772;28;20213;-52
2022/03/25 04:20:59;;;;;;;35.23;22.77;;;;;;;;;;2061824;28;20178;-53
2022/03/25 04:21:59;;;;;;;34.83;23.93;;;;;;;;;;2056096;28;20190;-53
2022/03/25 04:22:59;;;;;;;35.20;22.83;;;;;;;;;;2046912;29;20722;-55
2022/03/25 04:24:00;;;;;;;31.97;21.87;;;;;;;;;;2046754;29;20664;-51
2022/03/25 04:25:00;;;;;;;30.03;21.33;;;;;;;;;;2054718;28;20278;-51
2022/03/25 04:26:01;;;;;;;31.20;22.07;;;;;;;;;;2046743;29;20173;-55
2022/03/25 04:27:02;;;;;;;31.53;22.37;;;;;;;;;;2038743;29;20175;-55
2022/03/25 04:28:02;;;;;;;32.47;24.17;;;;;;;;;;2047513;28;20687;-52
2022/03/25 04:29:03;;;;;;;36.00;23.40;;;;;;;;;;2055227;28;20182;-54
2022/03/25 04:30:03;;;;;;;33.67;23.50;;;;;;;;;;2055608;28;20222;-51
2022/03/25 04:31:04;;;;;;;32.70;22.63;;;;;;;;;;2046874;29;20214;-55
2022/03/25 04:32:04;;;;;;;32.67;22.80;;;;;;;;;;2051239;29;20183;-57
2022/03/25 04:33:05;;;;;;;35.17;22.77;;;;;;;;;;2045954;28;20195;-54
2022/03/25 04:34:05;;;;;;;32.00;23.47;;;;;;;;;;2051031;28;20186;-52
2022/03/25 04:35:06;;;;;;;37.33;22.90;;;;;;;;;;2050925;29;20183;-53
2022/03/25 04:36:06;;;;;;;33.03;23.47;;;;;;;;;;2046542;29;20250;-54
2022/03/25 04:37:07;;;;;;;35.60;23.77;;;;;;;;;;2043169;29;20175;-53
2022/03/25 04:38:07;;;;;;;35.07;23.23;;;;;;;;;;2046348;29;20228;-53
2022/03/25 04:39:08;;;;;;;36.70;23.37;;;;;;;;;;2050790;29;20202;-52
2022/03/25 04:40:09;;;;;;;35.97;22.07;;;;;;;;;;2054567;28;20170;-51
2022/03/25 04:41:10;;;;;;;33.20;24.53;;;;;;;;;;2059152;28;20181;-51
2022/03/25 04:42:11;;;;;;;44.23;24.57;;;;;;;;;;2059571;28;20186;-54
2022/03/25 04:43:11;;;;;;;38.13;23.37;;;;;;;;;;2055282;28;20675;-52
2022/03/25 04:44:11;;;;;;;37.60;24.23;;;;;;;;;;2055505;28;20197;-54
2022/03/25 04:45:11;;;;;;;32.67;21.70;;;;;;;;;;2053929;28;20174;-54
2022/03/25 04:46:12;;;;;;;39.17;23.10;;;;;;;;;;2050357;29;20174;-50
2022/03/25 04:47:12;;;;;;;35.27;24.03;;;;;;;;;;2050160;29;20553;-53
2022/03/25 04:48:12;;;;;;;36.03;23.07;;;;;;;;;;2054454;28;20201;-51
2022/03/25 04:49:12;;;;;;;36.03;24.63;;;;;;;;;;2058832;28;20178;-51
2022/03/25 04:50:13;;;;;;;32.30;22.87;;;;;;;;;;2058748;28;20200;-53
2022/03/25 04:51:13;;;;;;;33.57;23.83;;;;;;;;;;2058920;28;20202;-52
2022/03/25 04:52:13;;;;;;;37.50;25.40;;;;;;;;;;2053700;28;20206;-53
2022/03/25 04:53:14;;;;;;;37.63;23.87;;;;;;;;;;2056255;28;20220;-51
2022/03/25 04:54:14;;;;;;;37.77;24.00;;;;;;;;;;2044077;29;20207;-52
2022/03/25 04:55:16;;;;;;;36.67;24.10;;;;;;;;;;2045279;29;20266;-52
2022/03/25 04:56:16;;;;;;;35.23;24.23;;;;;;;;;;2050885;28;20553;-54
2022/03/25 04:57:17;;;;;;;37.47;24.90;;;;;;;;;;2054698;28;20257;-52
2022/03/25 04:58:17;;;;;;;32.37;23.90;;;;;;;;;;2046071;28;20200;-51
2022/03/25 04:59:17;;;;;;;39.50;24.43;;;;;;;;;;2052038;28;20240;-51
2022/03/25 05:00:17;;;;;;;33.50;23.90;;;;;;;;;;2046802;28;20190;-50
2022/03/25 05:01:18;;;;;;;34.77;24.17;;;;;;;;;;2052985;28;20189;-51
2022/03/25 05:02:18;;;;;;;37.33;23.40;;;;;;;;;;2050648;28;20167;-50
2022/03/25 05:03:19;;;;;;;37.57;25.10;;;;;;;;;;2052838;28;20167;-55
2022/03/25 05:04:19;;;;;;;35.07;24.43;;;;;;;;;;2048979;28;20707;-56
2022/03/25 05:05:20;;;;;;;36.50;24.57;;;;;;;;;;2053092;28;20178;-54
2022/03/25 05:06:20;;;;;;;36.20;24.17;;;;;;;;;;2048851;28;20239;-53
2022/03/25 05:07:21;;;;;;;36.67;25.33;;;;;;;;;;2053641;28;20229;-53
2022/03/25 05:08:21;;;;;;;41.00;23.40;;;;;;;;;;2051057;28;20261;-52
2022/03/25 05:09:22;;;;;;;33.90;24.47;;;;;;;;;;2046049;29;20214;-54
2022/03/25 05:10:22;;;;;;;35.07;23.93;;;;;;;;;;2048215;28;20175;-54
2022/03/25 05:11:22;;;;;;;38.87;24.87;;;;;;;;;;2058568;28;20681;-53
2022/03/25 05:12:22;;;;;;;36.80;25.47;;;;;;;;;;2054207;28;20659;-53
2022/03/25 05:13:23;;;;;;;37.60;25.43;;;;;;;;;;2052592;29;20183;-51
2022/03/25 05:14:23;;;;;;;34.10;24.63;;;;;;;;;;2057627;28;20201;-54
2022/03/25 05:15:23;;;;;;;36.20;23.97;;;;;;;;;;2059962;28;20209;-54
2022/03/25 05:16:24;;;;;;;40.33;25.90;;;;;;;;;;2054115;28;20175;-56
2022/03/25 05:17:24;;;;;;;37.83;24.47;;;;;;;;;;2052094;29;20576;-53
2022/03/25 05:19:29;;;;;;;42.50;25.53;;;;;;;;;;2052583;28;20222;-67
2022/03/25 05:20:29;;;;;;;36.53;26.17;;;;;;;;;;2048993;28;20179;-66
2022/03/25 05:21:29;;;;;;;36.50;25.37;;;;;;;;;;2048958;28;20183;-66
2022/03/25 05:22:29;;;;;;;37.87;25.30;;;;;;;;;;2056148;28;20170;-66
2022/03/25 05:23:30;;;;;;;38.53;24.80;;;;;;;;;;2049546;28;20644;-64
2022/03/25 05:24:30;;;;;;;37.77;24.67;;;;;;;;;;2055037;28;20663;-66
2022/03/25 05:25:30;;;;;;;41.57;24.57;;;;;;;;;;2057597;28;20835;-65
2022/03/25 05:26:30;;;;;;;36.67;25.60;;;;;;;;;;2058111;28;20262;-66
2022/03/25 05:27:31;;;;;;;36.30;23.67;;;;;;;;;;2046908;28;20167;-63
2022/03/25 05:28:31;;;;;;;33.87;24.67;;;;;;;;;;2055743;28;20615;-67
2022/03/25 05:29:31;;;;;;;39.13;26.33;;;;;;;;;;2057786;28;20520;-68
2022/03/25 05:30:32;;;;;;;40.00;24.57;;;;;;;;;;2058103;28;20241;-65
2022/03/25 05:31:33;;;;;;;34.67;23.37;;;;;;;;;;2053092;28;20700;-67
2022/03/25 05:32:33;;;;;;;38.23;24.30;;;;;;;;;;2061350;28;20259;-66
2022/03/25 05:33:33;;;;;;;33.30;24.00;;;;;;;;;;2049458;29;20225;-63
2022/03/25 05:34:33;;;;;;;35.40;23.83;;;;;;;;;;2056595;28;20182;-72
2022/03/25 05:35:34;;;;;;;36.60;25.07;;;;;;;;;;2057463;28;20197;-66
2022/03/25 05:36:34;;;;;;;36.80;24.90;;;;;;;;;;2045950;28;20175;-66
2022/03/25 05:37:36;;;;;;;35.57;23.70;;;;;;;;;;2053678;28;20173;-66
2022/03/25 05:38:36;;;;;;;34.30;25.67;;;;;;;;;;2058111;28;20181;-66
2022/03/25 05:39:36;;;;;;;35.23;24.13;;;;;;;;;;2057917;28;20178;-66
2022/03/25 05:40:36;;;;;;;37.77;25.77;;;;;;;;;;2059377;28;20167;-68
2022/03/25 05:41:38;;;;;;;51.30;27.80;;;;;;;;;;2057650;28;20678;-66
2022/03/25 05:42:38;;;;;;;45.30;25.97;;;;;;;;;;2057659;28;20170;-67
2022/03/25 05:43:38;;;;;;;37.40;25.57;;;;;;;;;;2057477;28;20174;-67
2022/03/25 05:44:39;;;;;;;39.93;25.67;;;;;;;;;;2059122;28;20253;-67
2022/03/25 05:45:39;;;;;;;36.53;25.20;;;;;;;;;;2058848;28;20179;-65
2022/03/25 05:46:39;;;;;;;38.93;25.77;;;;;;;;;;2058698;28;20171;-66
2022/03/25 05:47:40;;;;;;;37.40;25.03;;;;;;;;;;2058514;28;20862;-66
2022/03/25 05:48:40;;;;;;;39.83;24.67;;;;;;;;;;2058457;28;20221;-65
2022/03/25 05:49:41;;;;;;;36.03;24.47;;;;;;;;;;2046038;28;20175;-66
2022/03/25 05:50:41;;;;;;;35.93;25.20;;;;;;;;;;2058706;28;20186;-67
2022/03/25 05:51:41;;;;;;;35.33;25.60;;;;;;;;;;2058524;28;20190;-67
2022/03/25 05:52:42;;;;;;;36.37;24.60;;;;;;;;;;2050765;28;20191;-66
2022/03/25 05:53:42;;;;;;;36.83;25.73;;;;;;;;;;2057375;28;20619;-68
2022/03/25 05:54:43;;;;;;;35.70;25.03;;;;;;;;;;2058362;28;20182;-67